createdAt,value
2018-01-06T00:00:26.225Z,7.50
2018-01-06T00:03:08.246Z,7.40
2018-01-06T00:05:41.412Z,7.40
2018-01-06T00:08:15.980Z,7.40
2018-01-06T00:10:49.513Z,7.40
2018-01-06T00:13:26.337Z,7.40
2018-01-06T00:15:56.829Z,7.40
2018-01-06T00:18:28.483Z,7.20
2018-01-06T00:21:08.847Z,7.20
2018-01-06T00:23:48.317Z,7.10
2018-01-06T00:26:26.211Z,7.10
2018-01-06T00:28:58.764Z,6.90
2018-01-06T00:31:38.081Z,6.80
2018-01-06T00:34:10.911Z,6.80
2018-01-06T00:36:42.225Z,6.70
2018-01-06T00:39:14.200Z,6.80
2018-01-06T00:41:49.155Z,6.80
2018-01-06T00:44:20.364Z,6.80
2018-01-06T00:46:58.473Z,6.80
2018-01-06T00:49:44.767Z,6.80
2018-01-06T00:52:15.965Z,6.70
2018-01-06T00:54:48.282Z,6.70
2018-01-06T00:57:20.362Z,6.80
2018-01-06T00:59:54.843Z,6.80
2018-01-06T01:02:28.682Z,6.80
2018-01-06T01:04:59.016Z,6.80
2018-01-06T01:07:28.951Z,6.80
2018-01-06T01:09:59.580Z,6.80
2018-01-06T01:12:35.006Z,6.80
2018-01-06T01:15:07.776Z,6.80
2018-01-06T01:17:39.104Z,6.80
2018-01-06T01:20:08.776Z,6.80
2018-01-06T01:22:52.784Z,6.70
2018-01-06T01:25:42.715Z,6.70
2018-01-06T01:28:13.796Z,6.60
2018-01-06T01:30:44.460Z,6.70
2018-01-06T01:33:15.379Z,6.70
2018-01-06T01:35:51.695Z,6.70
2018-01-06T01:38:21.663Z,6.70
2018-01-06T01:40:53.877Z,6.70
2018-01-06T01:43:23.976Z,6.60
2018-01-06T01:45:54.273Z,6.60
2018-01-06T01:48:24.761Z,6.60
2018-01-06T01:50:54.961Z,6.50
2018-01-06T01:53:24.954Z,6.50
2018-01-06T01:55:58.671Z,6.50
2018-01-06T01:58:32.637Z,6.50
2018-01-06T02:01:02.996Z,6.50
2018-01-06T02:03:33.505Z,6.40
2018-01-06T02:06:03.960Z,6.40
2018-01-06T02:08:34.323Z,6.40
2018-01-06T02:11:04.189Z,6.40
2018-01-06T02:13:34.754Z,6.40
2018-01-06T02:16:04.508Z,6.40
2018-01-06T02:18:34.161Z,6.40
2018-01-06T02:21:04.407Z,6.40
2018-01-06T02:23:38.407Z,6.40
2018-01-06T02:26:15.431Z,6.40
2018-01-06T02:28:45.593Z,6.40
2018-01-06T02:31:15.669Z,6.40
2018-01-06T02:33:45.359Z,6.40
2018-01-06T02:36:15.705Z,6.40
2018-01-06T02:38:45.615Z,6.40
2018-01-06T02:41:16.032Z,6.40
2018-01-06T02:43:46.815Z,6.40
2018-01-06T02:46:31.511Z,6.30
2018-01-06T02:49:01.861Z,6.30
2018-01-06T02:51:32.155Z,6.20
2018-01-06T02:54:01.877Z,6.20
2018-01-06T02:56:31.709Z,6.20
2018-01-06T02:59:01.435Z,6.20
2018-01-06T03:01:42.649Z,6.20
2018-01-06T03:04:28.501Z,6.20
2018-01-06T03:07:04.887Z,6.20
2018-01-06T03:09:35.494Z,6.20
2018-01-06T03:12:22.841Z,6.30
2018-01-06T03:15:01.921Z,6.20
2018-01-06T03:17:34.176Z,6.20
2018-01-06T03:20:03.618Z,6.20
2018-01-06T03:22:33.271Z,6.10
2018-01-06T03:25:02.897Z,6.10
2018-01-06T03:27:32.312Z,6.10
2018-01-06T03:30:01.716Z,5.90
2018-01-06T03:32:45.637Z,5.90
2018-01-06T03:35:33.780Z,5.80
2018-01-06T03:38:05.691Z,5.80
2018-01-06T03:40:35.370Z,5.80
2018-01-06T03:43:09.068Z,5.80
2018-01-06T03:45:40.954Z,5.80
2018-01-06T03:48:12.661Z,5.80
2018-01-06T03:50:45.159Z,5.80
2018-01-06T03:53:16.799Z,5.90
2018-01-06T03:55:46.533Z,5.80
2018-01-06T03:58:16.052Z,5.80
2018-01-06T04:00:45.580Z,5.80
2018-01-06T04:03:15.374Z,5.80
2018-01-06T04:05:54.805Z,5.70
2018-01-06T04:08:39.631Z,5.70
2018-01-06T04:11:09.438Z,5.70
2018-01-06T04:13:40.159Z,5.70
2018-01-06T04:16:15.413Z,5.70
2018-01-06T04:18:45.764Z,5.70
2018-01-06T04:21:15.470Z,5.70
2018-01-06T04:23:45.125Z,5.70
2018-01-06T04:26:14.888Z,5.70
2018-01-06T04:28:44.323Z,5.70
2018-01-06T04:31:13.748Z,5.70
2018-01-06T04:33:44.092Z,5.60
2018-01-06T04:36:13.876Z,5.50
2018-01-06T04:38:43.279Z,5.60
2018-01-06T04:41:18.066Z,5.60
2018-01-06T04:43:47.555Z,5.60
2018-01-06T04:46:17.044Z,5.60
2018-01-06T04:48:47.423Z,5.60
2018-01-06T04:51:16.852Z,5.60
2018-01-06T04:53:46.447Z,5.60
2018-01-06T04:56:24.813Z,5.60
2018-01-06T04:58:59.784Z,5.60
2018-01-06T05:01:29.907Z,5.60
2018-01-06T05:03:59.377Z,5.60
2018-01-06T05:06:28.857Z,5.60
2018-01-06T05:08:59.206Z,5.60
2018-01-06T05:11:29.191Z,5.50
2018-01-06T05:13:58.770Z,5.60
2018-01-06T05:16:28.219Z,5.60
2018-01-06T05:18:57.777Z,5.50
2018-01-06T05:21:27.431Z,5.40
2018-01-06T05:23:57.365Z,5.40
2018-01-06T05:26:26.729Z,5.30
2018-01-06T05:28:57.082Z,5.40
2018-01-06T05:31:26.579Z,5.30
2018-01-06T05:33:56.103Z,5.30
2018-01-06T05:36:25.536Z,5.30
2018-01-06T05:38:55.194Z,5.30
2018-01-06T05:41:24.650Z,5.30
2018-01-06T05:43:54.109Z,5.30
2018-01-06T05:46:23.737Z,5.30
2018-01-06T05:48:53.111Z,5.30
2018-01-06T05:51:22.627Z,5.30
2018-01-06T05:53:52.161Z,5.30
2018-01-06T05:56:21.631Z,5.30
2018-01-06T05:58:51.075Z,5.40
2018-01-06T06:01:20.753Z,5.40
2018-01-06T06:03:50.245Z,5.40
2018-01-06T06:06:20.118Z,5.50
2018-01-06T06:08:49.707Z,5.50
2018-01-06T06:11:19.247Z,5.40
2018-01-06T06:13:48.674Z,5.40
2018-01-06T06:16:18.042Z,5.40
2018-01-06T06:18:48.404Z,5.30
2018-01-06T06:21:18.261Z,5.30
2018-01-06T06:23:47.810Z,5.30
2018-01-06T06:26:18.241Z,5.40
2018-01-06T06:28:48.637Z,5.50
2018-01-06T06:31:18.083Z,5.50
2018-01-06T06:33:47.607Z,5.50
2018-01-06T06:36:17.611Z,5.50
2018-01-06T06:38:47.196Z,5.50
2018-01-06T06:41:17.364Z,5.40
2018-01-06T06:43:46.978Z,5.40
2018-01-06T06:46:16.488Z,5.30
2018-01-06T06:48:45.959Z,5.30
2018-01-06T06:51:16.610Z,5.40
2018-01-06T06:53:46.535Z,5.30
2018-01-06T06:56:16.189Z,5.30
2018-01-06T06:58:46.845Z,5.30
2018-01-06T07:01:16.540Z,5.30
2018-01-06T07:03:46.069Z,5.30
2018-01-06T07:06:15.545Z,5.30
2018-01-06T07:08:45.918Z,5.30
2018-01-06T07:11:15.384Z,5.30
2018-01-06T07:13:45.215Z,5.30
2018-01-06T07:16:15.274Z,5.30
2018-01-06T07:18:45.589Z,5.20
2018-01-06T07:21:15.272Z,5.20
2018-01-06T07:23:45.551Z,5.20
2018-01-06T07:26:16.014Z,5.20
2018-01-06T07:28:45.573Z,5.20
2018-01-06T07:31:15.533Z,5.30
2018-01-06T07:33:45.246Z,5.30
2018-01-06T07:36:14.794Z,5.30
2018-01-06T07:38:45.100Z,5.20
2018-01-06T07:41:14.591Z,5.30
2018-01-06T07:43:44.071Z,5.30
2018-01-06T07:46:13.580Z,5.40
2018-01-06T07:48:43.215Z,5.40
2018-01-06T07:51:13.112Z,5.40
2018-01-06T07:53:47.492Z,5.30
2018-01-06T07:56:20.072Z,5.30
2018-01-06T07:58:50.428Z,5.20
2018-01-06T08:01:27.570Z,5.30
2018-01-06T08:04:00.033Z,5.20
2018-01-06T08:06:29.843Z,5.20
2018-01-06T08:09:01.497Z,5.20
2018-01-06T08:11:33.994Z,5.20
2018-01-06T08:14:04.572Z,5.30
2018-01-06T08:16:35.220Z,5.30
2018-01-06T08:19:05.910Z,5.30
2018-01-06T08:21:36.922Z,5.30
2018-01-06T08:24:08.736Z,5.30
2018-01-06T08:26:44.366Z,5.30
2018-01-06T08:29:23.297Z,5.50
2018-01-06T08:31:53.218Z,5.60
2018-01-06T08:34:26.593Z,5.70
2018-01-06T08:36:57.818Z,5.80
2018-01-06T08:39:27.406Z,5.70
2018-01-06T08:41:58.069Z,5.80
2018-01-06T08:44:28.709Z,5.90
2018-01-06T08:47:00.691Z,6.00
2018-01-06T08:49:30.792Z,6.00
2018-01-06T08:52:00.984Z,6.20
2018-01-06T08:54:40.560Z,6.10
2018-01-06T08:57:12.041Z,6.30
2018-01-06T08:59:41.832Z,6.30
2018-01-06T09:02:13.231Z,6.30
2018-01-06T09:04:43.250Z,6.30
2018-01-06T09:07:16.984Z,6.40
2018-01-06T09:18:12.537Z,6.30
2018-01-06T09:20:45.807Z,6.50
2018-01-06T09:23:29.500Z,6.30
2018-01-06T09:26:02.101Z,6.30
2018-01-06T09:28:32.088Z,6.30
2018-01-06T09:31:01.806Z,6.20
2018-01-06T09:33:35.584Z,6.20
2018-01-06T09:36:06.571Z,6.20
2018-01-06T09:38:38.078Z,6.30
2018-01-06T09:41:10.311Z,6.50
2018-01-06T09:43:41.488Z,6.50
2018-01-06T09:46:11.122Z,6.60
2018-01-06T09:48:41.773Z,6.80
2018-01-06T09:51:12.699Z,6.70
2018-01-06T09:53:43.879Z,6.80
2018-01-06T09:56:15.007Z,6.70
2018-01-06T09:58:45.946Z,6.80
2018-01-06T10:01:31.561Z,6.70
2018-01-06T10:04:02.003Z,6.70
2018-01-06T10:06:32.789Z,6.90
2018-01-06T10:09:02.330Z,7.00
2018-01-06T10:11:32.431Z,7.10
2018-01-06T10:14:02.178Z,7.00
2018-01-06T10:16:32.285Z,7.00
2018-01-06T10:19:04.914Z,7.00
2018-01-06T10:21:35.554Z,7.00
2018-01-06T10:24:05.533Z,7.10
2018-01-06T10:26:39.403Z,7.20
2018-01-06T10:29:09.289Z,7.20
2018-01-06T10:31:39.355Z,7.50
2018-01-06T10:34:09.637Z,7.50
2018-01-06T10:36:39.521Z,7.70
2018-01-06T10:39:09.804Z,7.70
2018-01-06T10:41:40.581Z,7.70
2018-01-06T10:44:18.600Z,7.70
2018-01-06T10:46:56.892Z,7.60
2018-01-06T10:49:29.168Z,7.70
2018-01-06T10:52:07.584Z,7.60
2018-01-06T10:54:41.552Z,7.80
2018-01-06T10:57:20.802Z,7.70
2018-01-06T10:59:53.156Z,7.80
2018-01-06T11:02:23.701Z,7.70
2018-01-06T11:04:55.217Z,7.80
2018-01-06T11:07:26.064Z,7.70
2018-01-06T11:09:58.339Z,7.70
2018-01-06T11:12:40.896Z,7.80
2018-01-06T11:15:14.114Z,7.80
2018-01-06T11:17:52.975Z,7.70
2018-01-06T11:20:23.224Z,7.70
2018-01-06T11:22:56.130Z,7.70
2018-01-06T11:25:40.801Z,7.80
2018-01-06T11:28:23.135Z,7.80
2018-01-06T11:30:54.989Z,8.00
2018-01-06T11:33:26.307Z,8.00
2018-01-06T11:36:03.169Z,8.20
2018-01-06T11:38:34.078Z,8.30
2018-01-06T11:41:03.817Z,8.30
2018-01-06T11:43:33.456Z,8.30
2018-01-06T11:46:04.821Z,8.30
2018-01-06T11:48:47.314Z,8.40
2018-01-06T11:51:18.835Z,8.40
2018-01-06T11:53:50.721Z,8.30
2018-01-06T11:56:21.221Z,8.30
2018-01-06T11:58:52.055Z,8.30
2018-01-06T12:01:50.149Z,8.30
2018-01-06T12:04:36.014Z,8.40
2018-01-06T12:07:08.433Z,8.20
2018-01-06T12:09:47.099Z,8.30
2018-01-06T12:12:18.277Z,8.30
2018-01-06T12:14:48.338Z,8.30
2018-01-06T12:17:33.359Z,8.50
2018-01-06T12:20:06.740Z,8.50
2018-01-06T12:22:38.408Z,8.70
2018-01-06T12:25:08.513Z,8.70
2018-01-06T12:27:38.672Z,8.70
2018-01-06T12:30:08.362Z,8.70
2018-01-06T12:32:43.260Z,8.70
2018-01-06T12:35:33.044Z,8.70
2018-01-06T12:38:18.013Z,8.70
2018-01-06T12:41:06.701Z,8.70
2018-01-06T12:43:39.640Z,8.80
2018-01-06T12:46:15.927Z,8.70
2018-01-06T12:49:09.193Z,8.80
2018-01-06T12:51:48.201Z,8.70
2018-01-06T12:54:24.904Z,8.70
2018-01-06T12:56:55.902Z,8.70
2018-01-06T12:59:28.578Z,8.80
2018-01-06T13:01:58.716Z,8.80
2018-01-06T13:04:30.374Z,8.80
2018-01-06T13:07:00.176Z,8.80
2018-01-06T13:09:30.513Z,8.80
2018-01-06T13:12:00.245Z,8.70
2018-01-06T13:14:30.807Z,8.70
2018-01-06T13:17:01.165Z,8.80
2018-01-06T13:19:31.004Z,8.80
2018-01-06T13:22:01.509Z,8.80
2018-01-06T13:24:31.463Z,8.80
2018-01-06T13:27:01.317Z,8.90
2018-01-06T13:29:32.321Z,9.00
2018-01-06T13:32:02.002Z,9.00
2018-01-06T13:34:32.034Z,9.00
2018-01-06T13:37:07.359Z,9.10
2018-01-06T13:39:45.456Z,9.10
2018-01-06T13:42:27.391Z,9.10
2018-01-06T13:44:57.472Z,9.20
2018-01-06T13:47:30.050Z,9.10
2018-01-06T13:50:01.577Z,9.20
2018-01-06T13:52:31.798Z,9.10
2018-01-06T13:55:02.467Z,9.10
2018-01-06T13:57:34.602Z,9.10
2018-01-06T14:00:05.774Z,9.10
2018-01-06T14:02:37.942Z,9.20
2018-01-06T14:05:22.804Z,9.10
2018-01-06T14:07:56.386Z,9.10
2018-01-06T14:10:26.721Z,9.10
2018-01-06T14:12:57.366Z,9.20
2018-01-06T14:15:27.627Z,9.10
2018-01-06T14:17:57.524Z,9.10
2018-01-06T14:20:28.205Z,9.10
2018-01-06T14:23:08.002Z,8.90
2018-01-06T14:25:37.977Z,8.90
2018-01-06T14:28:30.940Z,9.00
2018-01-06T14:31:02.208Z,9.10
2018-01-06T14:33:33.756Z,9.10
2018-01-06T14:36:04.665Z,9.00
2018-01-06T14:38:35.419Z,8.90
2018-01-06T14:41:07.257Z,8.80
2018-01-06T14:43:37.752Z,9.00
2018-01-06T14:46:10.019Z,9.10
2018-01-06T14:48:39.991Z,9.10
2018-01-06T14:51:11.829Z,9.20
2018-01-06T14:53:42.943Z,9.10
2018-01-06T14:56:13.837Z,9.00
2018-01-06T14:58:43.378Z,9.10
2018-01-06T15:01:22.979Z,8.90
2018-01-06T15:03:57.801Z,8.90
2018-01-06T15:06:32.675Z,9.00
2018-01-06T15:09:07.953Z,9.00
2018-01-06T15:11:38.627Z,8.90
2018-01-06T15:14:30.616Z,8.90
2018-01-06T15:17:15.086Z,8.90
2018-01-06T15:19:46.259Z,8.90
2018-01-06T15:22:19.189Z,8.80
2018-01-06T15:24:49.930Z,8.70
2018-01-06T15:27:21.344Z,8.70
2018-01-06T15:29:51.111Z,8.60
2018-01-06T15:32:21.060Z,8.50
2018-01-06T15:34:56.428Z,8.50
2018-01-06T15:37:26.698Z,8.40
2018-01-06T15:40:00.190Z,8.30
2018-01-06T15:43:01.703Z,8.30
2018-01-06T15:45:34.782Z,8.30
2018-01-06T15:48:29.411Z,8.30
2018-01-06T15:51:04.328Z,8.30
2018-01-06T15:53:38.870Z,8.40
2018-01-06T15:56:24.969Z,8.40
2018-01-06T15:59:03.674Z,8.40
2018-01-06T16:01:41.163Z,8.40
2018-01-06T16:04:15.975Z,8.40
2018-01-06T16:06:53.634Z,8.40
2018-01-06T16:12:29.449Z,8.50
2018-01-06T16:15:00.556Z,8.50
2018-01-06T16:17:32.193Z,8.50
2018-01-06T16:20:03.291Z,8.40
2018-01-06T16:22:37.954Z,8.40
2018-01-06T16:25:07.646Z,8.40
2018-01-06T16:27:40.316Z,8.30
2018-01-06T16:30:11.646Z,8.30
2018-01-06T16:32:42.521Z,8.30
2018-01-06T16:35:13.929Z,8.30
2018-01-06T16:37:44.974Z,8.30
2018-01-06T16:40:15.391Z,8.30
2018-01-06T16:42:48.093Z,8.20
2018-01-06T16:45:18.961Z,8.20
2018-01-06T16:47:50.188Z,8.30
2018-01-06T16:50:31.639Z,8.30
2018-01-06T16:53:03.065Z,8.40
2018-01-06T16:55:34.239Z,8.40
2018-01-06T16:58:05.751Z,8.50
2018-01-06T17:00:38.447Z,8.50
2018-01-06T17:03:14.320Z,8.60
2018-01-06T17:05:59.192Z,8.80
2018-01-06T17:08:37.527Z,8.80
2018-01-06T17:11:08.102Z,8.80
2018-01-06T17:13:39.687Z,8.80
2018-01-06T17:16:21.023Z,8.80
2018-01-06T17:18:58.536Z,8.80
2018-01-06T17:21:36.883Z,8.80
2018-01-06T17:24:26.417Z,8.90
2018-01-06T17:27:10.228Z,9.10
2018-01-06T17:29:49.864Z,9.00
2018-01-06T17:32:55.840Z,9.10
2018-01-06T17:35:27.508Z,9.10
2018-01-06T17:38:01.476Z,9.10
2018-01-06T17:40:33.778Z,9.20
2018-01-06T17:43:06.460Z,9.20
2018-01-06T17:45:51.484Z,9.30
2018-01-06T17:48:32.573Z,9.40
2018-01-06T17:51:17.692Z,9.50
2018-01-06T17:54:11.403Z,9.30
2018-01-06T17:56:52.356Z,9.30
2018-01-06T17:59:35.410Z,9.30
2018-01-06T18:02:07.052Z,9.30
2018-01-06T18:04:41.407Z,9.30
2018-01-06T18:07:18.720Z,9.30
2018-01-06T18:09:58.892Z,9.40
2018-01-06T18:12:38.547Z,9.50
2018-01-06T18:15:09.447Z,9.50
2018-01-06T18:17:41.564Z,9.40
2018-01-06T18:20:17.519Z,9.50
2018-01-06T18:22:58.732Z,9.50
2018-01-06T18:25:33.039Z,9.50
2018-01-06T18:28:17.240Z,9.50
2018-01-06T18:30:48.966Z,9.50
2018-01-06T18:33:23.790Z,9.60
2018-01-06T18:36:03.320Z,9.40
2018-01-06T18:38:44.808Z,9.40
2018-01-06T18:41:26.636Z,9.30
2018-01-06T18:44:10.847Z,9.20
2018-01-06T18:46:43.615Z,9.00
2018-01-06T18:49:14.045Z,9.10
2018-01-06T18:51:45.767Z,9.20
2018-01-06T18:54:23.096Z,9.30
2018-01-06T18:56:56.707Z,9.20
2018-01-06T18:59:41.912Z,9.20
2018-01-06T19:02:19.746Z,9.10
2018-01-06T19:04:55.526Z,9.10
2018-01-06T19:07:47.560Z,9.10
2018-01-06T19:10:33.384Z,9.20
2018-01-06T19:13:14.518Z,9.20
2018-01-06T19:15:53.314Z,9.30
2018-01-06T19:18:40.102Z,9.30
2018-01-06T19:21:11.736Z,9.30
2018-01-06T19:23:43.722Z,9.40
2018-01-06T19:26:15.806Z,9.40
2018-01-06T19:28:46.937Z,9.40
2018-01-06T19:31:19.397Z,9.40
2018-01-06T19:34:01.877Z,9.40
2018-01-06T19:36:44.285Z,9.40
2018-01-06T19:39:29.095Z,9.10
2018-01-06T19:42:04.342Z,9.10
2018-01-06T19:44:35.744Z,9.10
2018-01-06T19:47:17.724Z,9.10
2018-01-06T19:49:59.939Z,9.10
2018-01-06T19:52:31.560Z,9.00
2018-01-06T19:55:09.011Z,8.90
2018-01-06T19:57:39.063Z,8.80
2018-01-06T20:00:19.407Z,9.00
2018-01-06T20:03:01.775Z,9.10
2018-01-06T20:05:32.672Z,9.10
2018-01-06T20:08:04.171Z,9.10
2018-01-06T20:10:41.215Z,9.10
2018-01-06T20:13:12.548Z,9.00
2018-01-06T20:15:49.323Z,9.00
2018-01-06T20:18:23.329Z,8.80
2018-01-06T20:20:54.960Z,8.90
2018-01-06T20:23:30.832Z,8.90
2018-01-06T20:26:06.658Z,8.90
2018-01-06T20:28:37.115Z,8.80
2018-01-06T20:31:08.102Z,8.80
2018-01-06T20:33:50.582Z,8.70
2018-01-06T20:36:26.335Z,8.70
2018-01-06T20:39:11.578Z,8.70
2018-01-06T20:41:46.127Z,8.80
2018-01-06T20:44:31.034Z,8.80
2018-01-06T20:47:04.888Z,8.80
2018-01-06T20:49:37.603Z,8.70
2018-01-06T20:52:14.884Z,8.80
2018-01-06T20:54:57.378Z,8.80
2018-01-06T20:57:32.594Z,8.80
2018-01-06T21:00:15.157Z,8.70
2018-01-06T21:03:00.934Z,8.70
2018-01-06T21:05:42.546Z,8.70
2018-01-06T21:08:26.376Z,8.70
2018-01-06T21:11:00.392Z,8.60
2018-01-06T21:13:31.952Z,8.60
2018-01-06T21:16:05.036Z,8.80
2018-01-06T21:18:35.789Z,8.80
2018-01-06T21:21:07.878Z,8.80
2018-01-06T21:23:47.598Z,8.80
2018-01-06T21:26:22.563Z,8.80
2018-01-06T21:29:09.355Z,8.90
2018-01-06T21:32:00.215Z,8.90
2018-01-06T21:34:33.153Z,8.90
2018-01-06T21:37:29.648Z,8.90
2018-01-06T21:40:16.180Z,8.90
2018-01-06T21:43:03.460Z,8.90
2018-01-06T21:45:38.418Z,8.90
2018-01-06T21:48:24.123Z,8.90
2018-01-06T21:51:14.158Z,8.90
2018-01-06T21:53:44.966Z,8.80
2018-01-06T21:56:29.241Z,8.80
2018-01-06T21:59:00.761Z,8.80
2018-01-06T22:01:39.326Z,8.70
2018-01-06T22:04:13.865Z,8.70
2018-01-06T22:06:53.046Z,8.70
2018-01-06T22:09:56.818Z,8.60
2018-01-06T22:12:42.636Z,8.70
2018-01-06T22:15:33.687Z,8.70
2018-01-06T22:18:15.760Z,8.50
2018-01-06T22:20:52.287Z,8.50
2018-01-06T22:23:29.452Z,8.60
2018-01-06T22:26:13.978Z,8.60
2018-01-06T22:28:51.177Z,8.50
2018-01-06T22:31:27.827Z,8.40
2018-01-06T22:34:00.712Z,8.50
2018-01-06T22:36:34.486Z,8.60
2018-01-06T22:39:15.742Z,8.60
2018-01-06T22:42:01.907Z,8.60
2018-01-06T22:44:42.802Z,8.60
2018-01-06T22:47:25.742Z,8.50
2018-01-06T22:50:03.631Z,8.60
2018-01-06T22:52:39.624Z,8.50
2018-01-06T22:55:28.412Z,8.50
2018-01-06T22:58:11.725Z,8.50
2018-01-06T23:01:03.273Z,8.50
2018-01-06T23:03:35.644Z,8.50
2018-01-06T23:06:21.872Z,8.40
2018-01-06T23:09:24.120Z,8.40
2018-01-06T23:12:00.704Z,8.30
2018-01-06T23:14:42.548Z,8.40
2018-01-06T23:17:14.288Z,8.30
2018-01-06T23:19:46.195Z,8.20
2018-01-06T23:22:30.447Z,8.20
2018-01-06T23:25:14.294Z,8.20
2018-01-06T23:27:45.936Z,8.20
2018-01-06T23:30:31.316Z,8.20
2018-01-06T23:33:12.615Z,8.10
2018-01-06T23:35:54.553Z,8.00
2018-01-06T23:38:29.232Z,8.00
2018-01-06T23:41:07.815Z,8.00
2018-01-06T23:43:53.356Z,7.90
2018-01-06T23:46:29.281Z,7.80
2018-01-06T23:49:05.272Z,7.80
2018-01-06T23:51:42.314Z,7.70
2018-01-06T23:54:15.064Z,7.70
2018-01-06T23:56:54.800Z,7.60
2018-01-06T23:59:26.297Z,7.60
